Terminal Aerodrome Forecast
Issued by NWS

Current Version | Previous Version | Graphics & Text | Print | Product List | Glossary On
Versions: 1 2 3 4 5 6 7 8 9 10 11 12 13 14 15 16 17 18 19 20 21
000
FTUS41 KRLX 091740
TAFCKB
TAF
KCKB 091740Z 0918/1018 26004KT P6SM SKC
     FM092300 25006KT P6SM BKN040
      TEMPO 1001/1005 2SM -SHSN OVC020
     FM100500 25009G16KT 4SM -SHSN OVC017
     FM101000 26010G18KT 6SM -SHSN OVC024
     FM101300 26010G16KT P6SM OVC035=

USA.gov is the U.S. government's official web portal to all federal, state and local government web resources and services.